Wetterdaten: Woche 25.12.17 - 31.12.17 (KW52)
Datum Zeit Temp. Aussen Temp. o. S. +5cm Feuchte Auss Luftdruck Regen Sonnenschein Regendauer Solar Windben Empfang
25.12.2017 00:00 8,5 C 8,3 C 7,2 C 91 % 1021,0 hPa 0,0 l/m 0,00 h 0,00 h 0 W/m 27,0 km/h (4 Bft) 98,07 %
25.12.2017 01:00 8,2 C 7,8 C 6,7 C 92 % 1020,8 hPa 0,0 l/m 0,00 h 0,00 h 0 W/m 24,0 km/h (4 Bft) 96,72 %
25.12.2017 02:00 7,8 C 7,2 C 6,1 C 94 % 1020,4 hPa 0,0 l/m 0,00 h 0,00 h 0 W/m 19,1 km/h (3 Bft) 95,65 %
25.12.2017 03:00 7,6 C 7,4 C 6,1 C 95 % 1019,9 hPa 0,0 l/m 0,00 h 0,00 h 0 W/m 23,3 km/h (4 Bft) 95,65 %
25.12.2017 04:00 7,7 C 7,8 C 6,5 C 95 % 1019,4 hPa 0,0 l/m 0,00 h 0,00 h 0 W/m 24,1 km/h (4 Bft) 96,88 %
25.12.2017 05:00 7,9 C 7,8 C 6,7 C 93 % 1018,9 hPa 0,0 l/m 0,00 h 0,00 h 0 W/m 21,6 km/h (4 Bft) 96,10 %
25.12.2017 06:00 8,0 C 7,8 C 6,7 C 92 % 1018,5 hPa 0,0 l/m 0,00 h 0,00 h 0 W/m 23,8 km/h (4 Bft) 98,73 %
25.12.2017 07:00 8,0 C 7,9 C 6,7 C 91 % 1018,1 hPa 0,0 l/m 0,00 h 0,00 h 0 W/m 21,9 km/h (4 Bft) 93,36 %
25.12.2017 08:00 8,1 C 7,9 C 6,7 C 89 % 1017,7 hPa 0,0 l/m 0,00 h 0,00 h 5 W/m 21,1 km/h (4 Bft) 98,27 %
25.12.2017 09:00 7,9 C 7,8 C 6,7 C 90 % 1017,4 hPa 0,0 l/m 0,00 h 0,00 h 11 W/m 21,7 km/h (4 Bft) 97,73 %
25.12.2017 10:00 7,8 C 7,8 C 6,7 C 90 % 1017,4 hPa 0,0 l/m 0,00 h 0,00 h 20 W/m 21,3 km/h (4 Bft) 94,54 %
25.12.2017 11:00 7,9 C 7,8 C 6,9 C 88 % 1016,9 hPa 0,0 l/m 0,00 h 0,00 h 26 W/m 21,1 km/h (4 Bft) 96,99 %
25.12.2017 12:00 7,7 C 7,8 C 6,7 C 86 % 1016,0 hPa 0,0 l/m 0,00 h 0,00 h 35 W/m 26,3 km/h (4 Bft) 98,64 %
25.12.2017 13:00 7,4 C 7,6 C 6,7 C 84 % 1014,9 hPa 0,0 l/m 0,00 h 0,00 h 41 W/m 26,0 km/h (4 Bft) 94,66 %
25.12.2017 14:00 7,2 C 7,2 C 6,1 C 84 % 1014,0 hPa 0,0 l/m 0,00 h 0,00 h 28 W/m 22,4 km/h (4 Bft) 97,22 %
25.12.2017 15:00 6,6 C 6,4 C 5,4 C 83 % 1013,6 hPa 0,0 l/m 0,00 h 0,00 h 14 W/m 26,4 km/h (4 Bft) 96,01 %
25.12.2017 16:00 6,0 C 5,8 C 4,8 C 84 % 1013,1 hPa 0,0 l/m 0,00 h 0,00 h 8 W/m 23,4 km/h (4 Bft) 96,44 %
25.12.2017 17:00 5,5 C 5,4 C 4,4 C 84 % 1012,4 hPa 0,0 l/m 0,00 h 0,00 h 0 W/m 27,2 km/h (4 Bft) 98,08 %
25.12.2017 18:00 5,3 C 5,3 C 4,4 C 85 % 1011,0 hPa 0,0 l/m 0,00 h 0,00 h 0 W/m 25,9 km/h (4 Bft) 94,51 %
25.12.2017 19:00 5,3 C 5,0 C 4,2 C 84 % 1010,3 hPa 0,0 l/m 0,00 h 0,00 h 0 W/m 31,0 km/h (5 Bft) 96,94 %
25.12.2017 20:00 5,1 C 5,0 C 3,9 C 85 % 1009,6 hPa 0,0 l/m 0,00 h 0,00 h 0 W/m 30,3 km/h (5 Bft) 98,79 %
25.12.2017 21:00 4,6 C 4,5 C 3,5 C 84 % 1008,6 hPa 0,0 l/m 0,00 h 0,00 h 0 W/m 30,0 km/h (5 Bft) 95,31 %
25.12.2017 22:00 4,3 C 4,2 C 3,3 C 86 % 1007,8 hPa 0,0 l/m 0,00 h 0,00 h 0 W/m 32,4 km/h (5 Bft) 95,30 %
25.12.2017 23:00 4,1 C 4,1 C 3,3 C 85 % 1007,0 hPa 0,0 l/m 0,00 h 0,00 h 0 W/m 27,9 km/h (4 Bft) 97,72 %
26.12.2017 00:00 3,7 C 3,3 C 2,0 C 86 % 1006,1 hPa 0,0 l/m 0,00 h 0,00 h 0 W/m 24,8 km/h (4 Bft) 95,02 %
26.12.2017 01:00 3,2 C 2,8 C 1,5 C 89 % 1004,4 hPa 0,0 l/m 0,00 h 0,00 h 0 W/m 21,4 km/h (4 Bft) 97,86 %
26.12.2017 02:00 2,5 C 2,2 C 1,0 C 91 % 1003,2 hPa 0,0 l/m 0,00 h 0,00 h 0 W/m 17,0 km/h (3 Bft) 94,73 %
26.12.2017 03:00 2,5 C 2,3 C 1,1 C 93 % 1001,9 hPa 0,0 l/m 0,00 h 0,00 h 0 W/m 17,4 km/h (3 Bft) 97,29 %
26.12.2017 04:00 3,6 C 4,4 C 2,3 C 95 % 1000,1 hPa 0,0 l/m 0,00 h 0,00 h 0 W/m 17,5 km/h (3 Bft) 97,42 %
26.12.2017 05:00 6,3 C 6,9 C 5,0 C 89 % 998,9 hPa 0,0 l/m 0,00 h 0,00 h 0 W/m 30,3 km/h (5 Bft) 94,85 %
26.12.2017 06:00 8,1 C 7,5 C 6,1 C 82 % 998,1 hPa 0,4 l/m 0,00 h 0,40 h 0 W/m 37,1 km/h (5 Bft) 94,61 %
26.12.2017 07:00 6,8 C 5,4 C 4,4 C 90 % 998,8 hPa 1,4 l/m 0,00 h 1,00 h 0 W/m 43,5 km/h (6 Bft) 97,86 %
26.12.2017 08:00 5,7 C 4,9 C 3,9 C 93 % 999,4 hPa 0,6 l/m 0,00 h 1,00 h 0 W/m 35,7 km/h (5 Bft) 96,94 %
26.12.2017 09:00 5,2 C 4,4 C 3,5 C 94 % 999,9 hPa 0,4 l/m 0,00 h 1,00 h 11 W/m 28,0 km/h (4 Bft) 96,65 %
26.12.2017 10:00 5,1 C 4,5 C 3,5 C 94 % 1000,1 hPa 0,0 l/m 0,00 h 0,20 h 38 W/m 27,2 km/h (4 Bft) 94,16 %
26.12.2017 11:00 5,5 C 6,6 C 3,9 C 92 % 1000,5 hPa 0,0 l/m 0,27 h 0,00 h 121 W/m 29,0 km/h (5 Bft) 98,15 %
26.12.2017 12:00 6,4 C 8,4 C 4,3 C 90 % 1000,6 hPa 0,0 l/m 0,30 h 0,00 h 125 W/m 34,8 km/h (5 Bft) 95,40 %
26.12.2017 13:00 6,7 C 7,9 C 4,6 C 87 % 1000,6 hPa 0,0 l/m 0,23 h 0,00 h 115 W/m 35,7 km/h (5 Bft) 95,73 %
26.12.2017 14:00 6,9 C 7,4 C 5,7 C 84 % 1000,4 hPa 0,0 l/m 0,13 h 0,00 h 92 W/m 30,4 km/h (5 Bft) 95,09 %
26.12.2017 15:00 6,7 C 6,9 C 5,3 C 83 % 1000,4 hPa 0,0 l/m 0,00 h 0,00 h 49 W/m 34,8 km/h (5 Bft) 97,65 %
26.12.2017 16:00 6,5 C 6,5 C 5,0 C 82 % 1000,4 hPa 0,0 l/m 0,00 h 0,00 h 8 W/m 28,1 km/h (4 Bft) 95,02 %
26.12.2017 17:00 6,3 C 6,1 C 4,7 C 83 % 1000,1 hPa 0,0 l/m 0,00 h 0,00 h 0 W/m 24,5 km/h (4 Bft) 96,21 %
26.12.2017 18:00 6,0 C 5,8 C 4,2 C 85 % 999,7 hPa 0,0 l/m 0,00 h 0,00 h 0 W/m 25,2 km/h (4 Bft) 96,14 %
26.12.2017 19:00 5,4 C 4,9 C 3,2 C 84 % 999,0 hPa 0,0 l/m 0,00 h 0,00 h 0 W/m 19,1 km/h (3 Bft) 97,65 %
26.12.2017 20:00 4,7 C 4,4 C 2,6 C 85 % 997,6 hPa 0,0 l/m 0,00 h 0,00 h 0 W/m 18,9 km/h (3 Bft) 95,94 %
26.12.2017 21:00 4,1 C 3,9 C 2,3 C 87 % 996,5 hPa 0,0 l/m 0,00 h 0,00 h 0 W/m 15,0 km/h (3 Bft) 95,87 %
26.12.2017 22:00 3,9 C 3,9 C 2,3 C 89 % 995,5 hPa 0,0 l/m 0,00 h 0,00 h 0 W/m 16,6 km/h (3 Bft) 96,80 %
26.12.2017 23:00 4,0 C 4,0 C 2,8 C 91 % 994,1 hPa 0,0 l/m 0,00 h 0,00 h 0 W/m 20,6 km/h (4 Bft) 97,37 %
27.12.2017 00:00 4,4 C 4,6 C 3,2 C 90 % 992,6 hPa 0,0 l/m 0,00 h 0,10 h 0 W/m 22,3 km/h (4 Bft) 94,88 %
27.12.2017 01:00 5,1 C 5,4 C 4,0 C 89 % 991,0 hPa 0,0 l/m 0,00 h 0,00 h 0 W/m 26,3 km/h (4 Bft) 97,79 %
27.12.2017 02:00 5,6 C 5,6 C 4,2 C 86 % 989,4 hPa 0,0 l/m 0,00 h 0,00 h 0 W/m 30,9 km/h (5 Bft) 96,30 %
27.12.2017 03:00 5,4 C 5,5 C 3,9 C 86 % 987,9 hPa 0,0 l/m 0,00 h 0,00 h 0 W/m 28,2 km/h (4 Bft) 97,37 %
27.12.2017 04:00 5,2 C 5,1 C 3,9 C 86 % 986,2 hPa 0,0 l/m 0,00 h 0,00 h 0 W/m 25,1 km/h (4 Bft) 96,12 %
27.12.2017 05:00 5,8 C 6,0 C 4,5 C 83 % 984,9 hPa 0,0 l/m 0,00 h 0,00 h 0 W/m 31,0 km/h (5 Bft) 95,60 %
27.12.2017 06:00 6,1 C 6,0 C 4,5 C 81 % 983,8 hPa 0,0 l/m 0,00 h 0,27 h 0 W/m 30,4 km/h (5 Bft) 96,60 %
27.12.2017 07:00 5,7 C 4,5 C 3,5 C 86 % 983,4 hPa 0,2 l/m 0,00 h 1,00 h 0 W/m 29,5 km/h (5 Bft) 98,12 %
27.12.2017 08:00 5,1 C 3,9 C 3,3 C 91 % 983,0 hPa 0,8 l/m 0,00 h 1,00 h 4 W/m 26,6 km/h (4 Bft) 92,96 %
27.12.2017 09:00 4,7 C 3,9 C 3,3 C 94 % 982,8 hPa 0,6 l/m 0,00 h 1,00 h 15 W/m 23,6 km/h (4 Bft) 96,37 %
27.12.2017 10:00 4,7 C 3,9 C 3,3 C 95 % 982,9 hPa 1,0 l/m 0,00 h 1,00 h 26 W/m 23,7 km/h (4 Bft) 97,72 %
27.12.2017 11:00 4,8 C 4,4 C 3,7 C 96 % 982,8 hPa 0,6 l/m 0,00 h 0,87 h 42 W/m 19,8 km/h (3 Bft) 94,20 %
27.12.2017 12:00 5,3 C 5,4 C 4,5 C 96 % 982,5 hPa 0,0 l/m 0,00 h 0,03 h 81 W/m 16,9 km/h (3 Bft) 97,28 %
27.12.2017 13:00 6,1 C 7,3 C 4,9 C 95 % 982,1 hPa 0,0 l/m 0,50 h 0,00 h 138 W/m 18,1 km/h (3 Bft) 96,30 %
27.12.2017 14:00 6,7 C 7,3 C 4,7 C 88 % 981,7 hPa 0,0 l/m 0,30 h 0,00 h 98 W/m 18,6 km/h (3 Bft) 96,58 %
27.12.2017 15:00 7,1 C 7,2 C 4,4 C 84 % 982,1 hPa 0,0 l/m 0,00 h 0,00 h 41 W/m 14,5 km/h (3 Bft) 97,06 %
27.12.2017 16:00 6,8 C 6,2 C 3,4 C 83 % 982,4 hPa 0,0 l/m 0,00 h 0,00 h 14 W/m 7,8 km/h (2 Bft) 95,59 %
27.12.2017 17:00 5,8 C 4,5 C 1,5 C 84 % 982,7 hPa 0,0 l/m 0,00 h 0,00 h 0 W/m 5,5 km/h (1 Bft) 95,87 %
27.12.2017 18:00 4,9 C 4,8 C 2,5 C 89 % 983,2 hPa 0,0 l/m 0,00 h 0,00 h 0 W/m 6,2 km/h (2 Bft) 99,12 %
27.12.2017 19:00 5,0 C 4,8 C 3,2 C 91 % 983,8 hPa 0,2 l/m 0,00 h 0,70 h 0 W/m 12,1 km/h (2 Bft) 93,53 %
27.12.2017 20:00 5,1 C 4,2 C 3,3 C 92 % 984,6 hPa 1,6 l/m 0,00 h 0,87 h 0 W/m 12,2 km/h (2 Bft) 97,51 %
27.12.2017 21:00 4,7 C 3,9 C 3,1 C 94 % 985,4 hPa 0,6 l/m 0,00 h 0,70 h 0 W/m 10,4 km/h (2 Bft) 97,72 %
27.12.2017 22:00 4,6 C 4,1 C 3,3 C 95 % 986,2 hPa 0,2 l/m 0,00 h 0,00 h 0 W/m 15,5 km/h (3 Bft) 95,30 %
27.12.2017 23:00 4,0 C 3,4 C 2,6 C 96 % 987,6 hPa 0,0 l/m 0,00 h 0,17 h 0 W/m 27,1 km/h (4 Bft) 96,66 %
28.12.2017 00:00 3,4 C 2,8 C 1,9 C 95 % 988,8 hPa 0,0 l/m 0,00 h 0,00 h 0 W/m 20,6 km/h (4 Bft) 96,48 %
28.12.2017 01:00 3,3 C 2,8 C 1,7 C 95 % 989,8 hPa 0,0 l/m 0,00 h 0,00 h 0 W/m 17,0 km/h (3 Bft) 95,59 %
28.12.2017 02:00 3,3 C 2,8 C 1,7 C 94 % 990,9 hPa 0,0 l/m 0,00 h 0,00 h 0 W/m 19,6 km/h (3 Bft) 98,15 %
28.12.2017 03:00 3,0 C 2,1 C 0,9 C 93 % 991,7 hPa 0,0 l/m 0,00 h 0,00 h 0 W/m 22,1 km/h (4 Bft) 96,01 %
28.12.2017 04:00 2,2 C 1,2 C 0,2 C 93 % 992,5 hPa 0,0 l/m 0,00 h 0,00 h 0 W/m 18,3 km/h (3 Bft) 94,20 %
28.12.2017 05:00 2,2 C 1,7 C 0,7 C 94 % 993,3 hPa 0,0 l/m 0,00 h 0,13 h 0 W/m 19,7 km/h (3 Bft) 98,77 %
28.12.2017 06:00 2,5 C 2,2 C 1,1 C 95 % 994,3 hPa 0,0 l/m 0,00 h 0,10 h 0 W/m 20,5 km/h (4 Bft) 96,07 %
28.12.2017 07:00 2,4 C 1,9 C 0,8 C 95 % 995,3 hPa 0,0 l/m 0,00 h 0,13 h 0 W/m 19,6 km/h (3 Bft) 97,04 %
28.12.2017 08:00 2,0 C 1,7 C 0,5 C 95 % 996,1 hPa 0,0 l/m 0,00 h 0,20 h 10 W/m 23,0 km/h (4 Bft) 94,79 %
28.12.2017 09:00 1,9 C 1,9 C 0,6 C 95 % 996,6 hPa 0,2 l/m 0,07 h 0,00 h 35 W/m 19,4 km/h (3 Bft) 98,34 %
28.12.2017 10:00 2,5 C 3,6 C 1,3 C 96 % 997,4 hPa 0,0 l/m 0,47 h 0,03 h 107 W/m 24,3 km/h (4 Bft) 95,78 %
28.12.2017 11:00 3,1 C 6,9 C 1,7 C 94 % 997,9 hPa 0,0 l/m 0,87 h 0,03 h 175 W/m 26,1 km/h (4 Bft) 96,42 %
28.12.2017 12:00 3,7 C 9,4 C 1,9 C 88 % 998,5 hPa 0,0 l/m 0,77 h 0,00 h 202 W/m 24,2 km/h (4 Bft) 95,36 %
28.12.2017 13:00 4,4 C 10,6 C 3,1 C 83 % 998,9 hPa 0,0 l/m 0,97 h 0,00 h 205 W/m 25,1 km/h (4 Bft) 95,67 %
28.12.2017 14:00 4,2 C 5,1 C 3,0 C 81 % 999,4 hPa 0,0 l/m 0,07 h 0,00 h 75 W/m 23,4 km/h (4 Bft) 96,51 %
28.12.2017 15:00 3,7 C 3,8 C 2,6 C 82 % 1000,1 hPa 0,0 l/m 0,00 h 0,00 h 32 W/m 23,2 km/h (4 Bft) 98,50 %
28.12.2017 16:00 3,4 C 3,1 C 1,9 C 85 % 1000,7 hPa 0,0 l/m 0,27 h 0,00 h 17 W/m 19,7 km/h (3 Bft) 95,01 %
28.12.2017 17:00 3,0 C 2,7 C 1,5 C 87 % 1001,4 hPa 0,0 l/m 0,00 h 0,00 h 0 W/m 18,3 km/h (3 Bft) 95,37 %
28.12.2017 18:00 2,7 C 2,6 C 1,4 C 88 % 1002,2 hPa 0,0 l/m 0,00 h 0,00 h 0 W/m 21,2 km/h (4 Bft) 98,34 %
28.12.2017 19:00 2,7 C 2,6 C 1,4 C 89 % 1002,6 hPa 0,0 l/m 0,00 h 0,00 h 0 W/m 22,7 km/h (4 Bft) 96,44 %
28.12.2017 20:00 3,0 C 2,8 C 1,7 C 88 % 1003,2 hPa 0,0 l/m 0,00 h 0,00 h 0 W/m 26,3 km/h (4 Bft) 95,80 %
28.12.2017 21:00 2,9 C 2,8 C 1,6 C 88 % 1003,8 hPa 0,0 l/m 0,00 h 0,03 h 0 W/m 25,3 km/h (4 Bft) 96,02 %
28.12.2017 22:00 2,6 C 2,1 C 0,8 C 87 % 1004,5 hPa 0,0 l/m 0,00 h 0,00 h 0 W/m 24,2 km/h (4 Bft) 97,94 %
28.12.2017 23:00 2,0 C 1,6 C 0,4 C 89 % 1005,2 hPa 0,0 l/m 0,00 h 0,03 h 0 W/m 21,0 km/h (4 Bft) 95,87 %
29.12.2017 00:00 1,6 C 1,1 C -0,2 C 90 % 1005,6 hPa 0,0 l/m 0,00 h 0,00 h 0 W/m 20,7 km/h (4 Bft) 95,89 %
29.12.2017 01:00 1,3 C 1,0 C -0,3 C 91 % 1006,0 hPa 0,0 l/m 0,00 h 0,00 h 0 W/m 19,5 km/h (3 Bft) 96,22 %
29.12.2017 02:00 1,2 C 0,9 C -0,4 C 91 % 1006,4 hPa 0,0 l/m 0,00 h 0,00 h 0 W/m 17,6 km/h (3 Bft) 96,87 %
29.12.2017 03:00 1,2 C 0,9 C -0,5 C 90 % 1006,5 hPa 0,0 l/m 0,00 h 0,00 h 0 W/m 15,6 km/h (3 Bft) 97,01 %
29.12.2017 04:00 0,7 C 0,1 C -1,1 C 91 % 1006,3 hPa 0,0 l/m 0,00 h 0,00 h 0 W/m 13,5 km/h (3 Bft) 97,51 %
29.12.2017 05:00 0,6 C 0,3 C -1,1 C 92 % 1006,3 hPa 0,0 l/m 0,00 h 0,00 h 0 W/m 15,9 km/h (3 Bft) 93,92 %
29.12.2017 06:00 0,4 C -0,0 C -1,6 C 92 % 1006,3 hPa 0,0 l/m 0,00 h 0,00 h 0 W/m 12,7 km/h (3 Bft) 97,78 %
29.12.2017 07:00 0,4 C 0,2 C -1,3 C 93 % 1006,2 hPa 0,0 l/m 0,00 h 0,00 h 0 W/m 15,2 km/h (3 Bft) 98,35 %
29.12.2017 08:00 0,4 C 0,2 C -1,7 C 93 % 1005,8 hPa 0,0 l/m 0,00 h 0,00 h 9 W/m 10,1 km/h (2 Bft) 95,01 %
29.12.2017 09:00 -0,1 C 0,1 C -1,6 C 92 % 1005,5 hPa 0,0 l/m 0,37 h 0,00 h 50 W/m 9,7 km/h (2 Bft) 97,04 %
29.12.2017 10:00 0,6 C 1,7 C -0,1 C 93 % 1004,6 hPa 0,0 l/m 0,90 h 0,00 h 121 W/m 15,8 km/h (3 Bft) 95,65 %
29.12.2017 11:00 2,3 C 4,6 C 2,0 C 89 % 1003,7 hPa 0,0 l/m 0,90 h 0,00 h 162 W/m 19,2 km/h (3 Bft) 97,58 %
29.12.2017 12:00 3,6 C 4,0 C 3,1 C 83 % 1002,4 hPa 0,0 l/m 0,00 h 0,00 h 80 W/m 23,4 km/h (4 Bft) 96,25 %
29.12.2017 13:00 3,7 C 3,1 C 2,3 C 84 % 1001,2 hPa 0,2 l/m 0,00 h 0,60 h 37 W/m 30,0 km/h (5 Bft) 94,89 %
29.12.2017 14:00 2,4 C 1,4 C 0,6 C 91 % 999,2 hPa 1,4 l/m 0,00 h 1,00 h 16 W/m 33,0 km/h (5 Bft) 96,08 %
29.12.2017 15:00 0,8 C 0,0 C -1,1 C 94 % 997,5 hPa 1,0 l/m 0,00 h 1,00 h 11 W/m 34,0 km/h (5 Bft) 98,44 %
29.12.2017 16:00 1,1 C 0,9 C -0,2 C 96 % 996,4 hPa 1,6 l/m 0,00 h 1,00 h 7 W/m 33,6 km/h (5 Bft) 90,96 %
29.12.2017 17:00 1,7 C 1,6 C 0,6 C 97 % 995,8 hPa 0,8 l/m 0,00 h 0,73 h 0 W/m 27,9 km/h (4 Bft) 97,65 %
29.12.2017 18:00 2,2 C 1,9 C 1,0 C 97 % 995,9 hPa 0,0 l/m 0,00 h 0,40 h 0 W/m 19,0 km/h (3 Bft) 97,70 %
29.12.2017 19:00 2,7 C 2,5 C 1,4 C 97 % 996,3 hPa 0,0 l/m 0,00 h 0,20 h 0 W/m 13,9 km/h (3 Bft) 95,66 %
29.12.2017 20:00 3,4 C 3,3 C 1,9 C 97 % 997,2 hPa 0,0 l/m 0,00 h 0,00 h 0 W/m 16,2 km/h (3 Bft) 96,37 %
29.12.2017 21:00 3,9 C 3,6 C 2,2 C 96 % 998,2 hPa 0,0 l/m 0,00 h 0,00 h 0 W/m 20,2 km/h (4 Bft) 96,44 %
29.12.2017 22:00 4,1 C 3,4 C 2,0 C 96 % 999,1 hPa 0,0 l/m 0,00 h 0,00 h 0 W/m 22,1 km/h (4 Bft) 94,81 %
29.12.2017 23:00 4,6 C 4,1 C 2,7 C 95 % 1000,3 hPa 0,2 l/m 0,00 h 0,00 h 0 W/m 29,8 km/h (5 Bft) 98,79 %
30.12.2017 00:00 5,0 C 4,2 C 2,7 C 91 % 1001,0 hPa 0,0 l/m 0,00 h 0,00 h 0 W/m 33,8 km/h (5 Bft) 95,06 %
30.12.2017 01:00 4,9 C 4,3 C 2,0 C 87 % 1001,5 hPa 0,0 l/m 0,00 h 0,00 h 0 W/m 31,3 km/h (5 Bft) 95,13 %
30.12.2017 02:00 4,6 C 4,3 C 1,7 C 86 % 1001,5 hPa 0,0 l/m 0,00 h 0,00 h 0 W/m 25,0 km/h (4 Bft) 98,16 %
30.12.2017 03:00 4,2 C 3,9 C 1,6 C 86 % 1000,7 hPa 0,0 l/m 0,00 h 0,00 h 0 W/m 19,9 km/h (4 Bft) 95,74 %
30.12.2017 04:00 3,9 C 3,8 C 1,6 C 88 % 1000,0 hPa 0,0 l/m 0,00 h 0,00 h 0 W/m 19,2 km/h (3 Bft) 97,39 %
30.12.2017 05:00 3,9 C 4,0 C 2,0 C 88 % 999,5 hPa 0,0 l/m 0,00 h 0,00 h 0 W/m 18,6 km/h (3 Bft) 95,35 %
30.12.2017 06:00 4,0 C 3,1 C 1,9 C 90 % 999,2 hPa 0,6 l/m 0,00 h 0,93 h 0 W/m 15,8 km/h (3 Bft) 97,54 %
30.12.2017 07:00 3,8 C 3,2 C 2,2 C 94 % 997,6 hPa 0,8 l/m 0,00 h 1,00 h 0 W/m 21,4 km/h (4 Bft) 97,14 %
30.12.2017 08:00 4,0 C 3,5 C 2,8 C 96 % 995,9 hPa 1,4 l/m 0,00 h 1,00 h 0 W/m 27,4 km/h (4 Bft) 95,89 %
30.12.2017 09:00 4,4 C 4,1 C 3,2 C 97 % 994,2 hPa 0,8 l/m 0,00 h 1,00 h 11 W/m 37,4 km/h (5 Bft) 94,06 %
30.12.2017 10:00 5,1 C 5,1 C 4,0 C 98 % 993,9 hPa 0,8 l/m 0,00 h 1,00 h 25 W/m 26,1 km/h (4 Bft) 98,03 %
30.12.2017 11:00 8,4 C 8,8 C 7,6 C 99 % 993,6 hPa 0,0 l/m 0,00 h 0,87 h 70 W/m 37,1 km/h (5 Bft) 95,85 %
30.12.2017 12:00 10,4 C 10,4 C 8,9 C 99 % 994,2 hPa 0,0 l/m 0,00 h 0,13 h 53 W/m 44,4 km/h (6 Bft) 95,15 %
30.12.2017 13:00 11,3 C 11,6 C 9,3 C 96 % 995,0 hPa 0,0 l/m 0,00 h 0,00 h 54 W/m 38,8 km/h (5 Bft) 96,65 %
30.12.2017 14:00 12,2 C 12,7 C 10,4 C 89 % 996,2 hPa 0,0 l/m 0,23 h 0,00 h 88 W/m 42,9 km/h (6 Bft) 96,80 %
30.12.2017 15:00 12,2 C 12,2 C 10,6 C 86 % 997,6 hPa 0,0 l/m 0,00 h 0,00 h 19 W/m 33,6 km/h (5 Bft) 95,80 %
30.12.2017 16:00 12,2 C 12,1 C 10,3 C 85 % 998,8 hPa 0,0 l/m 0,00 h 0,00 h 7 W/m 38,1 km/h (5 Bft) 96,02 %
30.12.2017 17:00 12,2 C 12,1 C 10,4 C 85 % 999,7 hPa 0,0 l/m 0,00 h 0,03 h 0 W/m 35,7 km/h (5 Bft) 95,44 %
30.12.2017 18:00 12,1 C 11,7 C 9,6 C 86 % 1000,4 hPa 0,0 l/m 0,00 h 0,70 h 0 W/m 33,5 km/h (5 Bft) 98,01 %
30.12.2017 19:00 12,2 C 12,1 C 10,1 C 87 % 1000,8 hPa 0,0 l/m 0,00 h 0,00 h 0 W/m 37,0 km/h (5 Bft) 95,58 %
30.12.2017 20:00 12,3 C 12,1 C 10,4 C 87 % 1001,4 hPa 0,0 l/m 0,00 h 0,00 h 0 W/m 36,3 km/h (5 Bft) 95,37 %
30.12.2017 21:00 12,2 C 12,0 C 10,2 C 87 % 1002,0 hPa 0,0 l/m 0,00 h 0,00 h 0 W/m 30,4 km/h (5 Bft) 98,07 %
30.12.2017 22:00 12,1 C 11,8 C 10,2 C 89 % 1002,5 hPa 0,0 l/m 0,00 h 0,00 h 0 W/m 26,7 km/h (4 Bft) 97,22 %
30.12.2017 23:00 12,0 C 11,8 C 10,2 C 89 % 1003,1 hPa 0,0 l/m 0,00 h 0,00 h 0 W/m 25,5 km/h (4 Bft) 93,80 %
31.12.2017 00:00 11,9 C 11,7 C 10,0 C 88 % 1003,6 hPa 0,0 l/m 0,00 h 0,00 h 0 W/m 22,8 km/h (4 Bft) 98,93 %
31.12.2017 01:00 11,6 C 10,7 C 9,2 C 90 % 1003,7 hPa 0,4 l/m 0,00 h 0,90 h 0 W/m 18,2 km/h (3 Bft) 96,30 %
31.12.2017 02:00 10,9 C 9,8 C 8,8 C 94 % 1003,4 hPa 1,0 l/m 0,00 h 1,00 h 0 W/m 18,4 km/h (3 Bft) 96,32 %
31.12.2017 03:00 10,0 C 9,2 C 8,1 C 96 % 1002,9 hPa 1,4 l/m 0,00 h 1,00 h 0 W/m 14,7 km/h (3 Bft) 95,22 %
31.12.2017 04:00 9,8 C 9,3 C 8,3 C 97 % 1002,2 hPa 0,8 l/m 0,00 h 1,00 h 0 W/m 19,3 km/h (3 Bft) 96,44 %
31.12.2017 05:00 11,5 C 11,1 C 10,0 C 98 % 1001,9 hPa 0,8 l/m 0,00 h 0,97 h 0 W/m 45,6 km/h (6 Bft) 96,28 %
31.12.2017 06:00 11,9 C 11,1 C 9,8 C 95 % 1001,7 hPa 0,0 l/m 0,00 h 0,83 h 0 W/m 49,0 km/h (6 Bft) 95,94 %
31.12.2017 07:00 12,7 C 11,9 C 10,0 C 88 % 1001,7 hPa 0,0 l/m 0,00 h 0,47 h 0 W/m 46,3 km/h (6 Bft) 95,35 %
31.12.2017 08:00 13,1 C 12,8 C 10,0 C 84 % 1001,9 hPa 0,0 l/m 0,00 h 0,00 h 6 W/m 43,0 km/h (6 Bft) 96,73 %
31.12.2017 09:00 13,2 C 13,0 C 11,5 C 83 % 1001,8 hPa 0,0 l/m 0,00 h 0,00 h 19 W/m 40,8 km/h (6 Bft) 96,80 %
31.12.2017 10:00 13,2 C 13,1 C 11,7 C 84 % 1001,8 hPa 0,0 l/m 0,00 h 0,00 h 24 W/m 37,0 km/h (5 Bft) 94,94 %
31.12.2017 11:00 13,5 C 13,9 C 12,3 C 85 % 1001,3 hPa 0,0 l/m 0,00 h 0,17 h 85 W/m 37,6 km/h (5 Bft) 96,94 %
31.12.2017 12:00 14,0 C 14,3 C 12,8 C 83 % 1000,8 hPa 0,0 l/m 0,00 h 0,00 h 95 W/m 43,8 km/h (6 Bft) 96,37 %
31.12.2017 13:00 14,1 C 14,3 C 12,9 C 81 % 999,9 hPa 0,0 l/m 0,00 h 0,00 h 83 W/m 39,7 km/h (6 Bft) 96,02 %
31.12.2017 14:00 14,2 C 14,2 C 12,8 C 79 % 999,0 hPa 0,0 l/m 0,00 h 0,00 h 56 W/m 40,0 km/h (6 Bft) 95,66 %
31.12.2017 15:00 14,0 C 13,9 C 12,2 C 77 % 998,1 hPa 0,0 l/m 0,00 h 0,00 h 14 W/m 35,5 km/h (5 Bft) 96,92 %
31.12.2017 16:00 13,8 C 13,5 C 12,1 C 78 % 997,7 hPa 0,0 l/m 0,00 h 0,00 h 5 W/m 32,4 km/h (5 Bft) 96,65 %
31.12.2017 17:00 13,5 C 12,2 C 10,7 C 81 % 997,2 hPa 0,0 l/m 0,00 h 0,87 h 0 W/m 32,9 km/h (5 Bft) 96,24 %
31.12.2017 18:00 12,6 C 10,8 C 9,4 C 86 % 996,8 hPa 0,4 l/m 0,00 h 1,00 h 0 W/m 30,0 km/h (5 Bft) 95,18 %
31.12.2017 19:00 12,1 C 10,9 C 9,4 C 87 % 995,9 hPa 0,2 l/m 0,00 h 0,77 h 0 W/m 29,0 km/h (5 Bft) 97,01 %
31.12.2017 20:00 11,0 C 9,4 C 8,2 C 89 % 996,5 hPa 1,8 l/m 0,00 h 1,00 h 0 W/m 41,7 km/h (6 Bft) 95,95 %
31.12.2017 21:00 9,6 C 8,7 C 7,7 C 94 % 996,9 hPa 0,0 l/m 0,00 h 0,47 h 0 W/m 31,8 km/h (5 Bft) 96,29 %
31.12.2017 22:00 9,3 C 8,3 C 7,2 C 92 % 997,0 hPa 0,0 l/m 0,00 h 0,00 h 0 W/m 34,0 km/h (5 Bft) 95,51 %
31.12.2017 23:00 8,5 C 7,0 C 5,9 C 89 % 997,8 hPa 0,4 l/m 0,00 h 0,97 h 0 W/m 46,6 km/h (6 Bft) 97,93 %
Min-Datum _ 29.12.17 29.12.17 29.12.17 31.12.17 27.12.17 - - - - 27.12.17 26.12.17
_ Min-Zeit 09:22 06:50 06:36 15:06 14:08 - - - - 17:28 05:40
Minimum _ -0,2 C -0,6 C -2,2 C 77 % 981,6 hPa - - - - 2,3 km/h (1 Bft) 37,72 %
Max-Datum _ 31.12.17 31.12.17 31.12.17 30.12.17 25.12.17 31.12.17 26.12.17 31.12.17 26.12.17 31.12.17 25.12.17
_ Max-Zeit 12:46 12:42 13:36 11:04 00:00 20:06 11:44 05:42 12:34 23:08 00:26
Maximum _ 14,2 C 15,0 C 13,3 C 99 % 1021,1 hPa 1,8 l/m 0,03 h 0,08 h 265 W/m 72,1 km/h
W-SW (8 Bft)
100,00 %
Durchschnitt _ 6,1 C 6,0 C 4,4 C 89 % 999,8 hPa #25,6 l/m #7:36 h #35:00 h 54 W/m 25,6 km/h (4 Bft) 96,37 %
© 2018 W. Hausmann